My Profile
  1. Member Settings
  2. My Devices
  3. Sign Out
        More Settings
      Elev 285 ft, 45.028 °N 25.870 °E

      Băicoi, RO

      Summary

      Temperature (°F)MaxAverageMin
      Max Temperature8371.7857
      Avg Temperature68.9661.0253.83
      Min Temperature5849.3436
      Precipitation (in)MaxAverageMinSum
      Precipitation0.540.0501.52
      Dew Point (°F)MaxAverageMin
      Dew Point59.3949.5135.83
      Wind (mph)MaxAverageMin
      Wind187.534
      Gust Wind3482
      Sea Level Pressure (in)MaxAverageMin
      Sea Level Pressure29.6529.329.04

      Daily Observations

      DateTemp High/LowDew Pt High/LowHumidityWindMax WindWind GustPressurePrecip.Condition
      5/1/2021 79 °F / 52 °F 59 °F / 49 °F 65 % 4 mph - 29.29 in 0 in
      5/2/2021 83 °F / 58 °F 61 °F / 55 °F 69 % 9 mph - 29.14 in 0 in
      5/3/2021 78 °F / 57 °F 55 °F / 36 °F 56 % 11 mph - 29.23 in 0 in
      5/4/2021 68 °F / 45 °F 44 °F / 38 °F 58 % 4 mph - 29.43 in 0 in
      5/5/2021 67 °F / 42 °F 52 °F / 38 °F 72 % 7 mph - 29.24 in 0 in
      5/6/2021 76 °F / 51 °F 53 °F / 44 °F 66 % 9 mph - 29.21 in 0.08 in
      5/7/2021 78 °F / 51 °F 53 °F / 42 °F 58 % 7 mph - 29.23 in 0 in
      5/8/2021 67 °F / 51 °F 50 °F / 22 °F 54 % 7 mph - 29.29 in 0 in
      5/9/2021 66 °F / 36 °F 39 °F / 30 °F 53 % 7 mph - 29.64 in 0 in
      5/10/2021 70 °F / 42 °F 41 °F / 36 °F 53 % 4 mph - 29.6 in 0 in
      5/11/2021 71 °F / 44 °F 42 °F / 30 °F 51 % 7 mph - 29.47 in 0 in
      5/12/2021 75 °F / 42 °F 52 °F / 40 °F 55 % 9 mph - 29.24 in 0 in
      5/13/2021 62 °F / 51 °F 54 °F / 42 °F 81 % 9 mph - 29.14 in 0.09 in
      5/14/2021 71 °F / 48 °F 55 °F / 47 °F 75 % 11 mph - 29.15 in 0.01 in
      5/15/2021 75 °F / 42 °F 53 °F / 42 °F 65 % 9 mph - 29.22 in 0 in
      5/16/2021 70 °F / 55 °F 56 °F / 51 °F 73 % 7 mph - 29.16 in 0 in
      5/17/2021 75 °F / 46 °F 54 °F / 45 °F 73 % 9 mph - 29.07 in 0 in
      5/18/2021 70 °F / 53 °F 54 °F / 40 °F 68 % 18 mph - 29.02 in 0 in
      5/19/2021 76 °F / 43 °F 48 °F / 41 °F 59 % 7 mph - 29.16 in 0 in
      5/20/2021 60 °F / 53 °F 54 °F / 47 °F 88 % 4 mph - 29.16 in 0.54 in
      5/21/2021 71 °F / 51 °F 52 °F / 42 °F 74 % 11 mph - 29.33 in 0.03 in
      5/22/2021 75 °F / 46 °F 54 °F / 45 °F 71 % 7 mph - 29.4 in 0 in
      5/23/2021 81 °F / 48 °F 57 °F / 47 °F 67 % 4 mph - 29.37 in 0 in
      5/24/2021 78 °F / 56 °F 56 °F / 44 °F 57 % 9 mph - 29.48 in 0 in
      5/25/2021 75 °F / 56 °F 61 °F / 48 °F 72 % 4 mph - 29.53 in 0.06 in
      5/26/2021 76 °F / 58 °F 62 °F / 56 °F 77 % 11 mph - 29.4 in 0.01 in
      5/27/2021 76 °F / 56 °F 60 °F / 55 °F 77 % 7 mph - 29.37 in 0.16 in
      5/28/2021 68 °F / 58 °F 61 °F / 56 °F 88 % 7 mph - 29.27 in 0.29 in
      5/29/2021 73 °F / 56 °F 59 °F / 54 °F 80 % 7 mph - 29.31 in 0 in
      5/30/2021 70 °F / 54 °F 56 °F / 50 °F 86 % 9 mph - 29.34 in 0.09 in
      5/31/2021 60 °F / 54 °F 55 °F / 51 °F 88 % 4 mph - 29.33 in 0.16 in
      essentialaccessibility.com
      We recognize our responsibility to use data and technology for good. We may use or share your data with our data vendors. Take control of your data.
      Glossary